Time;durP1;ratioP1;P1;durP2;ratioP2;P2;SDS_P1;SDS_P2;PMS_P1;PMS_P2;Temp;Humidity;BMP_temperature;BMP_pressure;BME280_temperature;BME280_humidity;BME280_pressure;Samples;Min_cycle;Max_cycle;Signal;HPM_P1;HPM_P2
2022/11/05 00:09:44;;;;;;;;;;;;;;;13.92;62.32;99122.19;4389202;32;20028;-82
2022/11/05 00:17:42;;;;;;;;;;;;;;;13.50;62.94;99110.41;4376997;32;20005;-81
2022/11/05 00:20:12;;;;;;;;;;;;;;;13.41;63.44;99106.12;4370767;32;19986;-81
2022/11/05 00:25:28;;;;;;;;;;;;;;;13.23;64.13;99095.81;4386532;32;20284;-81
2022/11/05 00:27:58;;;;;;;;;;;;;;;13.42;62.60;99093.97;4386511;32;20422;-81
2022/11/05 00:30:26;;;;;;;;;;;;;;;13.21;63.72;99093.25;4381823;32;20437;-81
2022/11/05 00:32:53;;;;;;;;;;;;;;;13.07;64.19;99100.25;4376992;32;19975;-81
2022/11/05 00:35:20;;;;;;;;;;;;;;;12.86;64.97;99101.25;4371374;32;19986;-81
2022/11/05 00:37:47;;;;;;;;;;;;;;;13.13;63.92;99099.34;4372930;32;20006;-81
2022/11/05 00:40:16;;;;;;;;;;;;;;;12.95;64.44;99098.56;4369659;32;20036;-81
2022/11/05 00:45:28;;;;;;;;;;;;;;;13.17;63.86;99095.84;4378881;32;20327;-82
2022/11/05 00:50:41;;;;;;;;;;;;;;;13.22;63.43;99109.69;4371590;32;19993;-81
2022/11/05 00:53:07;;;;;;;;;;;;;;;13.08;64.30;99107.19;3645413;32;10010624;-81
2022/11/05 00:55:39;;;;;;;;;;;;;;;13.25;62.97;99099.31;4349120;32;20034;-82
2022/11/05 00:58:10;;;;;;;;;;;;;;;13.15;63.37;99097.62;4373568;32;19994;-82
2022/11/05 01:00:39;;;;;;;;;;;;;;;13.13;62.98;99095.00;4377939;32;19987;-81
2022/11/05 01:03:07;;;;;;;;;;;;;;;13.12;63.16;99097.62;4371234;32;20428;-80
2022/11/05 01:05:36;;;;;;;;;;;;;;;13.32;62.60;99100.97;4373247;32;20320;-81
2022/11/05 01:08:03;;;;;;;;;;;;;;;13.09;63.45;99102.84;4377924;32;19971;-81
2022/11/05 01:10:30;;;;;;;;;;;;;;;13.11;63.80;99111.47;4382676;32;19991;-81
2022/11/05 01:12:57;;;;;;;;;;;;;;;13.11;63.44;99111.47;4376739;32;19983;-81
2022/11/05 01:15:24;;;;;;;;;;;;;;;13.10;63.53;99114.97;4374194;32;20403;-81
2022/11/05 01:17:51;;;;;;;;;;;;;;;12.97;64.05;99120.22;4379316;32;19979;-81
2022/11/05 01:20:18;;;;;;;;;;;;;;;13.22;63.32;99117.47;4371610;32;20003;-81
2022/11/05 01:22:44;;;;;;;;;;;;;;;12.97;64.15;99120.22;4375825;32;19997;-80
2022/11/05 01:25:11;;;;;;;;;;;;;;;13.26;63.15;99121.81;4374466;32;19982;-81
2022/11/05 01:27:38;;;;;;;;;;;;;;;13.24;62.74;99107.91;4372443;32;20381;-81
2022/11/05 01:30:06;;;;;;;;;;;;;;;13.08;63.13;99116.69;4377706;32;20114;-80
2022/11/05 01:32:33;;;;;;;;;;;;;;;12.80;64.41;99116.84;4371049;32;19998;-82
2022/11/05 01:35:00;;;;;;;;;;;;;;;12.89;63.92;99119.41;4372967;32;20327;-80
2022/11/05 01:37:27;;;;;;;;;;;;;;;13.00;63.91;99107.22;4377600;32;20297;-80
2022/11/05 01:39:54;;;;;;;;;;;;;;;12.94;64.04;99109.84;4371422;32;20009;-81
2022/11/05 01:42:22;;;;;;;;;;;;;;;12.87;64.42;99108.16;4378860;32;20004;-81
2022/11/05 01:45:04;;;;;;;;;;;;;;;12.76;64.93;99115.13;4372820;32;19975;-81
2022/11/05 01:47:33;;;;;;;;;;;;;;;12.78;64.36;99118.59;4371282;32;19983;-81
2022/11/05 01:50:12;;;;;;;;;;;;;;;12.80;64.59;99132.44;4379078;32;20037;-81
2022/11/05 01:52:39;;;;;;;;;;;;;;;12.77;64.82;99137.63;4377785;32;19997;-80
2022/11/05 01:55:06;;;;;;;;;;;;;;;12.79;65.15;99148.88;4376596;32;19978;-81
2022/11/05 01:57:32;;;;;;;;;;;;;;;12.75;65.38;99144.56;4386071;32;20005;-80
2022/11/05 01:59:59;;;;;;;;;;;;;;;13.10;63.24;99146.13;4414816;32;20001;-80
2022/11/05 02:02:28;;;;;;;;;;;;;;;13.10;63.59;99135.75;4410227;32;19978;-81
2022/11/05 02:04:59;;;;;;;;;;;;;;;12.86;64.34;99137.59;4396968;32;19995;-81
2022/11/05 02:07:26;;;;;;;;;;;;;;;13.00;63.72;99133.19;4391314;32;20411;-80
2022/11/05 02:09:58;;;;;;;;;;;;;;;12.69;64.85;99135.06;4400990;32;19989;-80
2022/11/05 02:12:24;;;;;;;;;;;;;;;12.68;65.20;99142.88;4398522;32;20008;-81
2022/11/05 02:14:51;;;;;;;;;;;;;;;12.72;64.66;99144.56;4386162;32;19971;-80
2022/11/05 02:17:18;;;;;;;;;;;;;;;12.75;64.80;99145.41;4394113;32;19993;-81
2022/11/05 02:20:14;;;;;;;;;;;;;;;12.82;64.62;99150.59;4385132;32;20013;-81
2022/11/05 02:22:49;;;;;;;;;;;;;;;12.99;63.97;99151.41;4390398;32;20343;-80
2022/11/05 02:25:35;;;;;;;;;;;;;;;13.01;63.50;99147.91;4409327;32;20001;-82
2022/11/05 02:28:20;;;;;;;;;;;;;;;12.73;64.35;99144.59;4392229;32;19998;-80
2022/11/05 02:30:48;;;;;;;;;;;;;;;12.67;64.47;99146.34;4385840;32;19978;-80
2022/11/05 02:33:23;;;;;;;;;;;;;;;12.66;64.47;99149.78;4397698;32;19979;-81
2022/11/05 02:36:01;;;;;;;;;;;;;;;12.77;64.34;99145.44;4403659;32;19978;-80
2022/11/05 02:38:44;;;;;;;;;;;;;;;12.55;65.11;99148.09;4401592;32;20317;-80
2022/11/05 02:41:17;;;;;;;;;;;;;;;12.50;64.79;99141.19;4409243;32;20010;-80
2022/11/05 02:43:46;;;;;;;;;;;;;;;12.55;64.58;99148.09;4396470;32;19986;-80
2022/11/05 02:46:25;;;;;;;;;;;;;;;12.60;64.60;99142.00;4397381;32;19989;-81
2022/11/05 02:49:11;;;;;;;;;;;;;;;12.67;64.15;99146.34;4393300;32;19985;-82
2022/11/05 02:51:39;;;;;;;;;;;;;;;12.48;65.03;99151.59;4386382;32;19994;-81
2022/11/05 02:54:20;;;;;;;;;;;;;;;12.39;64.96;99156.78;4396502;32;19997;-81
2022/11/05 02:56:47;;;;;;;;;;;;;;;12.49;64.95;99157.63;4178355;32;20010;-81
2022/11/05 02:59:14;;;;;;;;;;;;;;;12.32;65.06;99144.72;4345439;32;19979;-81
2022/11/05 03:01:41;;;;;;;;;;;;;;;12.74;63.89;99163.63;4424946;32;20000;-81
2022/11/05 03:04:09;;;;;;;;;;;;;;;12.70;64.16;99161.88;4424568;32;20001;-80
2022/11/05 03:06:46;;;;;;;;;;;;;;;12.63;64.59;99160.19;4402391;32;19973;-80
2022/11/05 03:09:19;;;;;;;;;;;;;;;12.59;64.84;99158.47;4431225;32;19982;-81
2022/11/05 03:11:46;;;;;;;;;;;;;;;12.51;64.62;99161.97;4374233;32;20012;-80
2022/11/05 03:14:31;;;;;;;;;;;;;;;12.63;64.43;99155.00;4379172;32;20009;-81
2022/11/05 03:16:59;;;;;;;;;;;;;;;12.65;63.98;99161.06;4370432;32;19983;-80
2022/11/05 03:19:33;;;;;;;;;;;;;;;12.37;65.49;99162.84;4395857;32;20321;-80
2022/11/05 03:22:13;;;;;;;;;;;;;;;12.52;64.56;99157.63;4398971;32;20005;-81
2022/11/05 03:24:41;;;;;;;;;;;;;;;12.43;65.22;99165.44;4398989;32;19986;-80
2022/11/05 03:27:09;;;;;;;;;;;;;;;12.77;63.90;99174.00;4372942;32;19986;-81
2022/11/05 03:29:38;;;;;;;;;;;;;;;12.76;64.00;99182.62;4366855;32;19979;-79
2022/11/05 03:32:04;;;;;;;;;;;;;;;12.78;63.47;99180.91;4408913;32;19983;-80
2022/11/05 03:34:35;;;;;;;;;;;;;;;12.73;63.20;99182.66;4412013;32;19994;-80
2022/11/05 03:37:02;;;;;;;;;;;;;;;12.32;64.46;99181.91;4413942;32;19987;-80
2022/11/05 03:39:30;;;;;;;;;;;;;;;12.24;65.06;99177.59;4417048;32;19982;-81
2022/11/05 03:41:58;;;;;;;;;;;;;;;12.65;63.70;99187.03;4408549;32;19993;-81
2022/11/05 03:44:28;;;;;;;;;;;;;;;12.57;63.55;99177.53;4408878;32;20001;-82
2022/11/05 03:46:57;;;;;;;;;;;;;;;12.31;64.99;99174.09;4409976;32;20717;-81
2022/11/05 03:49:24;;;;;;;;;;;;;;;12.34;64.88;99190.53;4415568;32;19990;-80
2022/11/05 03:51:52;;;;;;;;;;;;;;;12.61;63.46;99190.50;4383169;32;20021;-80
2022/11/05 03:54:18;;;;;;;;;;;;;;;12.67;63.48;99193.09;4378028;32;20368;-80
2022/11/05 03:57:02;;;;;;;;;;;;;;;12.38;64.27;99186.22;4407605;32;19982;-81
2022/11/05 03:59:29;;;;;;;;;;;;;;;12.51;64.04;99192.25;4387456;32;19970;-80
2022/11/05 04:01:56;;;;;;;;;;;;;;;12.44;63.94;99196.56;4409910;32;19990;-80
2022/11/05 04:04:23;;;;;;;;;;;;;;;12.36;64.72;99187.94;4416581;32;20009;-81
2022/11/05 04:15:08;;;;;;;;;;;;;;;12.48;63.36;99177.53;4388253;32;19992;-79
2022/11/05 04:17:35;;;;;;;;;;;;;;;12.47;63.57;99175.78;4409600;32;20026;-81
2022/11/05 04:25:33;;;;;;;;;;;;;;;12.38;63.52;99181.03;4386788;32;19987;-82
2022/11/05 04:28:00;;;;;;;;;;;;;;;12.47;63.26;99180.97;4386814;32;19985;-81
2022/11/05 04:30:27;;;;;;;;;;;;;;;12.27;64.13;99181.03;4386221;32;19979;-80
2022/11/05 04:33:09;;;;;;;;;;;;;;;12.35;63.68;99186.22;4387212;32;19971;-82
2022/11/05 04:35:37;;;;;;;;;;;;;;;12.16;64.29;99179.34;4390763;32;20001;-80
2022/11/05 04:38:04;;;;;;;;;;;;;;;12.41;62.99;99170.66;4161755;32;5002535;-80
2022/11/05 04:40:32;;;;;;;;;;;;;;;12.18;63.98;99156.81;4356619;32;19983;-79
2022/11/05 04:42:59;;;;;;;;;;;;;;;12.05;64.96;99159.44;4366425;32;19974;-80
2022/11/05 04:45:27;;;;;;;;;;;;;;;12.17;64.25;99165.50;4360043;32;19987;-81
2022/11/05 04:47:54;;;;;;;;;;;;;;;11.80;65.79;99170.66;4363466;32;20014;-82
2022/11/05 04:50:20;;;;;;;;;;;;;;;11.88;65.63;99168.97;4358190;32;19998;-80
2022/11/05 04:52:47;;;;;;;;;;;;;;;12.30;63.76;99177.56;4363402;32;20014;-80
2022/11/05 04:55:14;;;;;;;;;;;;;;;12.17;64.14;99186.25;4362560;32;20001;-82
2022/11/05 04:57:41;;;;;;;;;;;;;;;12.30;63.44;99182.75;4360242;32;19983;-80
2022/11/05 05:00:08;;;;;;;;;;;;;;;12.06;63.93;99176.75;4361124;32;19980;-80
2022/11/05 05:02:35;;;;;;;;;;;;;;;12.02;64.12;99171.53;4356044;32;19983;-80
2022/11/05 05:05:02;;;;;;;;;;;;;;;11.75;65.16;99182.75;4358054;32;20005;-80
2022/11/05 05:07:30;;;;;;;;;;;;;;;12.03;64.58;99174.16;4363030;32;20009;-80
2022/11/05 05:09:57;;;;;;;;;;;;;;;12.19;63.64;99174.12;4353343;32;19979;-82
2022/11/05 05:12:24;;;;;;;;;;;;;;;12.05;64.60;99172.41;4365036;32;19986;-81
2022/11/05 05:14:50;;;;;;;;;;;;;;;12.14;64.01;99160.31;4360455;32;19979;-81
2022/11/05 05:17:17;;;;;;;;;;;;;;;12.08;64.65;99167.22;4355154;32;19997;-80
2022/11/05 05:22:30;;;;;;;;;;;;;;;12.29;63.24;99171.53;4357578;32;20021;-80
2022/11/05 05:24:58;;;;;;;;;;;;;;;12.25;63.26;99179.28;4355988;32;19979;-82
2022/11/05 05:27:28;;;;;;;;;;;;;;;12.12;63.81;99178.44;4358052;32;19967;-82
2022/11/05 05:29:55;;;;;;;;;;;;;;;12.30;63.52;99182.75;4386474;32;20312;-82
2022/11/05 05:32:23;;;;;;;;;;;;;;;12.40;62.64;99183.59;4387315;32;19995;-82
2022/11/05 05:34:50;;;;;;;;;;;;;;;12.09;63.61;99189.72;4356611;32;19984;-81
2022/11/05 05:37:17;;;;;;;;;;;;;;;12.23;63.94;99197.47;4362703;32;19975;-80
2022/11/05 05:39:45;;;;;;;;;;;;;;;12.28;62.71;99194.88;4357404;32;20352;-80
2022/11/05 05:42:12;;;;;;;;;;;;;;;12.28;62.81;99189.69;4356152;32;19983;-81
2022/11/05 05:44:41;;;;;;;;;;;;;;;12.16;63.29;99194.91;4355907;32;20317;-80
2022/11/05 05:47:08;;;;;;;;;;;;;;;12.36;62.89;99195.72;4379295;32;20360;-80
2022/11/05 05:49:35;;;;;;;;;;;;;;;12.28;62.71;99202.66;4360999;32;19987;-80
2022/11/05 05:52:01;;;;;;;;;;;;;;;12.01;63.41;99207.00;4366338;32;20484;-82
2022/11/05 05:54:28;;;;;;;;;;;;;;;11.90;64.34;99216.53;4363369;32;19982;-81
2022/11/05 05:56:59;;;;;;;;;;;;;;;12.07;63.09;99225.16;4356366;32;19980;-81
2022/11/05 05:59:26;;;;;;;;;;;;;;;12.12;63.58;99230.34;4360277;32;20030;-83
2022/11/05 06:01:53;;;;;;;;;;;;;;;12.03;64.13;99236.41;4359705;32;19983;-81
2022/11/05 06:04:20;;;;;;;;;;;;;;;12.06;63.48;99241.59;4355801;32;19990;-82
2022/11/05 06:06:47;;;;;;;;;;;;;;;12.17;63.26;99253.69;4357582;32;20005;-80
2022/11/05 06:09:14;;;;;;;;;;;;;;;12.16;63.35;99259.75;4362535;32;20006;-81
2022/11/05 06:11:41;;;;;;;;;;;;;;;12.46;62.33;99267.53;4359505;32;20010;-81
2022/11/05 06:14:11;;;;;;;;;;;;;;;12.38;62.40;99266.69;4333284;32;890025;-81
2022/11/05 06:16:38;;;;;;;;;;;;;;;12.40;62.32;99272.72;4366079;32;19998;-80
2022/11/05 06:19:05;;;;;;;;;;;;;;;12.35;62.38;99279.66;4079977;32;10000442;-80
2022/11/05 06:21:33;;;;;;;;;;;;;;;12.41;62.09;99277.06;4372475;32;20006;-80
2022/11/05 06:24:01;;;;;;;;;;;;;;;12.34;62.69;99288.28;4353047;32;19979;-80
2022/11/05 06:26:28;;;;;;;;;;;;;;;12.35;63.01;99292.63;4359535;32;19983;-81
2022/11/05 06:28:54;;;;;;;;;;;;;;;12.34;62.95;99289.16;4367244;32;20419;-82
2022/11/05 06:31:22;;;;;;;;;;;;;;;12.44;61.86;99300.41;4364578;32;19995;-79
2022/11/05 06:33:49;;;;;;;;;;;;;;;12.39;62.25;99299.53;4365780;32;20253;-81
2022/11/05 06:36:17;;;;;;;;;;;;;;;12.32;62.60;99290.03;4359492;32;19998;-80
2022/11/05 06:38:44;;;;;;;;;;;;;;;12.46;62.25;99298.66;4365867;32;20679;-80
2022/11/05 06:41:11;;;;;;;;;;;;;;;12.41;62.58;99307.31;4368520;32;20268;-81
2022/11/05 06:43:38;;;;;;;;;;;;;;;12.43;62.71;99306.47;4386162;32;19991;-80
2022/11/05 06:46:05;;;;;;;;;;;;;;;12.36;62.44;99306.47;4354071;32;20002;-82
2022/11/05 06:48:32;;;;;;;;;;;;;;;12.41;62.67;99305.63;4380568;32;20498;-81
2022/11/05 06:50:59;;;;;;;;;;;;;;;12.33;62.68;99312.53;4361879;32;20039;-81
2022/11/05 06:53:26;;;;;;;;;;;;;;;12.31;63.18;99315.09;4387145;32;20105;-81
2022/11/05 06:55:53;;;;;;;;;;;;;;;12.37;63.37;99322.03;4344446;32;19994;-80
2022/11/05 06:58:20;;;;;;;;;;;;;;;12.15;64.60;99323.75;4340262;32;19987;-83
2022/11/05 07:00:46;;;;;;;;;;;;;;;12.60;62.74;99323.75;4349181;32;19976;-80
2022/11/05 07:03:13;;;;;;;;;;;;;;;12.77;61.60;99325.50;4352351;32;19990;-78
2022/11/05 07:05:43;;;;;;;;;;;;;;;12.72;61.79;99322.03;4356764;32;19987;-79
2022/11/05 07:08:10;;;;;;;;;;;;;;;12.55;62.48;99328.97;4346700;32;20046;-78
2022/11/05 07:10:41;;;;;;;;;;;;;;;12.23;63.15;99328.94;4353833;32;20027;-81
2022/11/05 07:13:09;;;;;;;;;;;;;;;12.31;63.99;99328.06;4345424;32;20034;-81
2022/11/05 07:15:37;;;;;;;;;;;;;;;12.25;63.87;99329.81;4349295;32;20253;-79
2022/11/05 07:18:06;;;;;;;;;;;;;;;12.38;63.06;99339.34;4355044;32;19987;-81
2022/11/05 07:20:33;;;;;;;;;;;;;;;12.64;62.31;99328.09;4356015;32;20314;-82
2022/11/05 07:23:04;;;;;;;;;;;;;;;12.71;61.85;99338.47;4378660;32;20032;-79
2022/11/05 07:25:31;;;;;;;;;;;;;;;12.67;62.25;99343.69;4362376;32;20026;-79
2022/11/05 07:27:58;;;;;;;;;;;;;;;12.73;61.76;99341.06;4346860;32;19983;-79
2022/11/05 07:30:25;;;;;;;;;;;;;;;12.78;61.43;99341.94;4343537;32;19995;-81
2022/11/05 07:32:52;;;;;;;;;;;;;;;12.82;61.33;99337.59;4354318;32;20058;-82
2022/11/05 07:35:19;;;;;;;;;;;;;;;12.82;61.16;99333.25;4375199;32;20001;-80
2022/11/05 07:37:46;;;;;;;;;;;;;;;12.73;62.11;99333.25;4355624;32;19999;-81
2022/11/05 07:40:13;;;;;;;;;;;;;;;13.02;61.58;99336.72;4357325;32;19983;-80
2022/11/05 07:42:42;;;;;;;;;;;;;;;12.80;61.76;99335.00;4351581;32;19996;-81
2022/11/05 07:45:09;;;;;;;;;;;;;;;12.92;60.96;99339.31;4357790;32;19975;-81
2022/11/05 07:47:37;;;;;;;;;;;;;;;12.95;60.75;99340.16;4369090;32;20009;-79
2022/11/05 07:50:04;;;;;;;;;;;;;;;12.88;61.63;99343.66;4378054;32;20029;-87
2022/11/05 07:52:31;;;;;;;;;;;;;;;12.90;61.29;99347.13;4364622;32;19987;-84
2022/11/05 07:54:58;;;;;;;;;;;;;;;13.15;60.25;99341.88;4366647;32;19974;-85
2022/11/05 07:57:25;;;;;;;;;;;;;;;13.09;60.49;99337.56;4371278;32;19986;-84
2022/11/05 07:59:51;;;;;;;;;;;;;;;13.21;59.87;99341.88;4363078;32;19995;-83
2022/11/05 08:02:18;;;;;;;;;;;;;;;12.92;61.84;99340.19;4369374;32;20317;-82
2022/11/05 08:04:45;;;;;;;;;;;;;;;13.12;60.05;99336.69;4359623;32;20001;-85
2022/11/05 08:07:12;;;;;;;;;;;;;;;12.76;61.73;99338.47;4366988;32;19989;-82
2022/11/05 08:09:40;;;;;;;;;;;;;;;13.12;59.91;99326.31;4353456;32;20024;-82
2022/11/05 08:12:07;;;;;;;;;;;;;;;13.08;60.58;99329.75;4363009;32;19983;-82
2022/11/05 08:14:34;;;;;;;;;;;;;;;12.97;60.74;99328.03;4364145;32;20001;-82
2022/11/05 08:17:00;;;;;;;;;;;;;;;13.02;60.88;99330.66;4359222;32;19979;-83
2022/11/05 08:19:27;;;;;;;;;;;;;;;13.07;60.20;99328.88;4355631;32;20348;-83
2022/11/05 08:21:54;;;;;;;;;;;;;;;13.14;60.21;99321.94;4360691;32;20042;-83
2022/11/05 08:24:21;;;;;;;;;;;;;;;13.32;59.55;99316.72;4370121;32;20323;-83
2022/11/05 08:26:48;;;;;;;;;;;;;;;13.31;59.63;99315.00;4363559;32;19989;-84
2022/11/05 08:29:14;;;;;;;;;;;;;;;13.25;59.94;99312.44;4354994;32;20332;-83
2022/11/05 08:31:41;;;;;;;;;;;;;;;13.26;60.15;99308.94;4366033;32;20026;-82
2022/11/05 08:34:08;;;;;;;;;;;;;;;13.29;60.52;99319.34;4355787;32;20340;-83
2022/11/05 08:36:35;;;;;;;;;;;;;;;13.13;61.02;99315.03;4361165;32;20313;-85
2022/11/05 08:39:02;;;;;;;;;;;;;;;13.32;59.74;99324.53;4339220;32;20701;-84
2022/11/05 08:41:29;;;;;;;;;;;;;;;13.35;59.12;99327.12;4348340;32;19991;-83
2022/11/05 08:43:56;;;;;;;;;;;;;;;13.18;60.39;99326.28;4347182;32;20002;-83
2022/11/05 08:46:22;;;;;;;;;;;;;;;13.43;59.18;99321.88;4339299;33;19994;-83
2022/11/05 08:48:50;;;;;;;;;;;;;;;13.55;59.11;99326.16;4354886;32;20006;-84
2022/11/05 08:51:17;;;;;;;;;;;;;;;13.56;58.44;99333.09;4363853;32;20485;-83
2022/11/05 08:53:44;;;;;;;;;;;;;;;13.36;59.16;99330.56;4352498;32;20030;-83
2022/11/05 08:56:11;;;;;;;;;;;;;;;13.44;58.99;99337.50;4348049;32;19975;-83
2022/11/05 08:58:37;;;;;;;;;;;;;;;13.59;58.95;99338.28;4355532;32;19983;-83
2022/11/05 09:01:04;;;;;;;;;;;;;;;13.67;58.33;99345.19;4356017;32;20005;-84
2022/11/05 09:03:32;;;;;;;;;;;;;;;13.62;58.89;99348.66;4347014;32;20041;-83
2022/11/05 09:05:59;;;;;;;;;;;;;;;13.20;59.67;99346.19;4341572;33;19994;-83
2022/11/05 09:08:26;;;;;;;;;;;;;;;13.18;59.97;99352.28;4341783;33;19999;-83
2022/11/05 09:10:53;;;;;;;;;;;;;;;13.36;59.89;99356.56;4342656;32;20010;-84
2022/11/05 09:13:21;;;;;;;;;;;;;;;13.11;60.07;99350.53;4348653;32;19979;-83
2022/11/05 09:15:49;;;;;;;;;;;;;;;13.32;60.19;99355.72;4355511;32;19978;-83
2022/11/05 09:18:16;;;;;;;;;;;;;;;13.42;60.07;99357.41;4353688;32;20039;-81
2022/11/05 09:20:43;;;;;;;;;;;;;;;13.42;58.85;99362.63;4360638;32;20242;-81
2022/11/05 09:23:10;;;;;;;;;;;;;;;13.34;59.18;99369.59;4353492;32;20006;-81
2022/11/05 09:25:38;;;;;;;;;;;;;;;13.43;59.08;99363.47;4328064;33;19994;-82
2022/11/05 09:28:27;;;;;;;;;;;;;;;13.39;58.76;99366.97;4341738;32;20372;-81
2022/11/05 09:30:54;;;;;;;;;;;;;;;13.46;59.10;99379.97;4349470;32;19990;-82
2022/11/05 09:33:22;;;;;;;;;;;;;;;13.40;59.21;99374.78;4341326;33;20003;-82
2022/11/05 09:35:50;;;;;;;;;;;;;;;13.30;60.54;99383.44;4352174;32;20046;-82
2022/11/05 09:38:17;;;;;;;;;;;;;;;13.73;58.34;99378.13;4348068;32;20118;-82
2022/11/05 09:40:51;;;;;;;;;;;;;;;13.42;59.55;99378.22;4344107;32;20863;-81
2022/11/05 09:43:19;;;;;;;;;;;;;;;13.71;58.52;99369.44;4358599;32;20798;-82
2022/11/05 09:45:47;;;;;;;;;;;;;;;13.39;60.79;99362.63;4321851;32;20001;-82
2022/11/05 09:48:15;;;;;;;;;;;;;;;13.68;60.04;99369.44;4345314;32;19987;-82
2022/11/05 09:50:43;;;;;;;;;;;;;;;14.05;57.57;99353.69;4348048;32;19975;-81
2022/11/05 09:53:14;;;;;;;;;;;;;;;13.91;58.49;99365.03;4359030;32;20003;-81
2022/11/05 09:55:43;;;;;;;;;;;;;;;13.91;59.80;99352.03;4368567;32;20268;-82
2022/11/05 09:58:13;;;;;;;;;;;;;;;14.19;57.49;99365.72;4370017;32;19992;-83
2022/11/05 10:00:40;;;;;;;;;;;;;;;14.18;57.51;99360.53;4379237;32;19991;-83
2022/11/05 10:03:11;;;;;;;;;;;;;;;14.16;58.06;99351.84;4331979;32;19994;-83
2022/11/05 10:05:38;;;;;;;;;;;;;;;14.46;56.96;99360.34;4340370;32;19995;-84
2022/11/05 10:08:19;;;;;;;;;;;;;;;14.38;57.45;99363.84;4364958;32;19998;-83
2022/11/05 10:10:47;;;;;;;;;;;;;;;14.34;57.04;99354.34;4358794;32;20010;-83
2022/11/05 10:13:21;;;;;;;;;;;;;;;14.37;56.72;99356.94;3755685;32;10011035;-82
2022/11/05 10:15:53;;;;;;;;;;;;;;;14.42;56.72;99355.16;4326018;32;20548;-83
2022/11/05 10:18:22;;;;;;;;;;;;;;;14.49;55.97;99350.78;4382586;32;19986;-83
2022/11/05 10:20:49;;;;;;;;;;;;;;;14.48;56.74;99355.97;4388745;32;20425;-81
2022/11/05 10:23:20;;;;;;;;;;;;;;;14.12;58.31;99355.38;4359692;32;19975;-82
2022/11/05 10:25:49;;;;;;;;;;;;;;;14.33;57.28;99350.03;4371436;32;19982;-83
2022/11/05 10:28:17;;;;;;;;;;;;;;;14.59;56.71;99351.59;4382528;32;19991;-82
2022/11/05 10:30:45;;;;;;;;;;;;;;;14.32;57.84;99353.47;4355838;32;20337;-82
2022/11/05 10:33:13;;;;;;;;;;;;;;;14.67;56.36;99344.56;4384015;32;20358;-83
2022/11/05 10:35:45;;;;;;;;;;;;;;;14.73;55.82;99344.50;4382200;32;20030;-84
2022/11/05 10:38:13;;;;;;;;;;;;;;;14.77;55.87;99346.25;4379226;32;19994;-83
2022/11/05 10:40:52;;;;;;;;;;;;;;;14.33;57.10;99350.03;4379590;32;20350;-83
2022/11/05 10:43:29;;;;;;;;;;;;;;;14.29;57.62;99352.63;4386009;32;19991;-84
2022/11/05 10:46:18;;;;;;;;;;;;;;;14.56;57.74;99346.41;4378915;32;19976;-82
2022/11/05 10:48:52;;;;;;;;;;;;;;;14.76;57.08;99354.91;4379117;32;19976;-83
2022/11/05 10:51:19;;;;;;;;;;;;;;;14.72;56.95;99363.63;4387535;32;19978;-83
2022/11/05 10:53:56;;;;;;;;;;;;;;;14.88;56.08;99360.03;4366835;32;19995;-83
2022/11/05 10:56:38;;;;;;;;;;;;;;;14.89;56.22;99361.75;4357441;32;20010;-82
2022/11/05 10:59:05;;;;;;;;;;;;;;;14.93;56.25;99372.12;4362631;32;20007;-83
2022/11/05 11:01:38;;;;;;;;;;;;;;;14.54;58.21;99379.41;4377902;32;20034;-84
2022/11/05 11:04:04;;;;;;;;;;;;;;;14.94;56.52;99376.50;4384310;32;19999;-83
2022/11/05 11:06:33;;;;;;;;;;;;;;;14.95;55.55;99370.38;4358400;32;20006;-83
2022/11/05 11:09:01;;;;;;;;;;;;;;;14.59;56.65;99373.28;4386834;32;20003;-83
2022/11/05 11:11:31;;;;;;;;;;;;;;;14.96;55.79;99361.69;4387416;32;19994;-83
2022/11/05 11:13:59;;;;;;;;;;;;;;;14.88;57.00;99364.38;4388300;32;19991;-83
2022/11/05 11:16:27;;;;;;;;;;;;;;;14.74;57.72;99364.50;4370034;32;19997;-83
2022/11/05 11:18:59;;;;;;;;;;;;;;;14.73;57.32;99365.34;4391437;32;19970;-83
2022/11/05 11:21:27;;;;;;;;;;;;;;;14.74;57.18;99363.63;4370710;32;19979;-83
2022/11/05 11:23:54;;;;;;;;;;;;;;;14.89;56.36;99356.53;4368725;32;19994;-83
2022/11/05 11:26:21;;;;;;;;;;;;;;;14.89;56.48;99356.53;4362229;32;19991;-83
2022/11/05 11:28:51;;;;;;;;;;;;;;;15.11;55.72;99366.75;4378553;32;19975;-83
2022/11/05 11:31:22;;;;;;;;;;;;;;;14.86;56.44;99363.50;4387222;32;20328;-83
2022/11/05 11:33:50;;;;;;;;;;;;;;;15.04;56.05;99365.09;4355350;32;19998;-83
2022/11/05 11:36:18;;;;;;;;;;;;;;;14.89;56.65;99363.47;4356858;32;19987;-83
2022/11/05 11:38:44;;;;;;;;;;;;;;;14.91;56.39;99363.50;4385163;32;19971;-84
2022/11/05 11:41:30;;;;;;;;;;;;;;;15.03;56.53;99359.03;4355208;32;19972;-83
2022/11/05 11:44:08;;;;;;;;;;;;;;;14.94;57.00;99353.03;4363666;32;19983;-82
2022/11/05 11:46:35;;;;;;;;;;;;;;;15.09;56.61;99348.53;4366678;32;19998;-83
2022/11/05 11:49:02;;;;;;;;;;;;;;;15.11;57.20;99351.13;4358516;32;19975;-83
2022/11/05 11:51:39;;;;;;;;;;;;;;;15.41;55.56;99343.81;4355301;32;19987;-83
2022/11/05 11:54:17;;;;;;;;;;;;;;;15.25;55.79;99349.25;4361130;32;20058;-83
2022/11/05 11:56:44;;;;;;;;;;;;;;;15.08;56.26;99348.53;4381168;32;19997;-83
2022/11/05 11:59:19;;;;;;;;;;;;;;;15.01;56.90;99349.47;4385232;32;20321;-83
2022/11/05 12:02:25;;;;;;;;;;;;;;;15.04;57.07;99359.88;4382503;32;20751;-83
2022/11/05 12:05:07;;;;;;;;;;;;;;;15.26;56.26;99361.37;4355505;32;19979;-83
2022/11/05 12:07:51;;;;;;;;;;;;;;;15.07;57.08;99365.06;4361198;32;20026;-83
2022/11/05 12:10:28;;;;;;;;;;;;;;;15.19;56.80;99357.12;4380108;32;19987;-83
2022/11/05 12:13:07;;;;;;;;;;;;;;;15.19;56.71;99358.84;4232230;32;5104961;-83
2022/11/05 12:15:41;;;;;;;;;;;;;;;15.24;56.33;99357.91;4358661;32;19990;-83
2022/11/05 12:18:28;;;;;;;;;;;;;;;15.19;56.92;99367.56;4357192;32;20025;-83
2022/11/05 12:21:18;;;;;;;;;;;;;;;15.39;56.16;99366.47;4356249;32;19975;-83
2022/11/05 12:24:23;;;;;;;;;;;;;;;15.45;55.91;99377.69;4363305;32;19983;-83
2022/11/05 12:27:22;;;;;;;;;;;;;;;15.51;55.62;99387.22;4360854;32;19978;-83
2022/11/05 12:30:01;;;;;;;;;;;;;;;15.31;56.38;99395.22;4372996;32;19980;-83
2022/11/05 12:32:35;;;;;;;;;;;;;;;15.45;56.05;99388.12;4362721;32;19976;-84
2022/11/05 12:35:21;;;;;;;;;;;;;;;15.34;57.11;99398.66;4385863;32;20034;-84
2022/11/05 12:37:48;;;;;;;;;;;;;;;15.64;55.65;99388.78;4376613;32;20332;-84
2022/11/05 12:40:20;;;;;;;;;;;;;;;15.44;56.57;99395.97;4378953;32;19998;-83
2022/11/05 12:42:51;;;;;;;;;;;;;;;15.44;56.47;99388.12;4375501;32;19967;-84
2022/11/05 12:45:47;;;;;;;;;;;;;;;15.71;55.30;99387.88;4387877;32;20003;-84
2022/11/05 12:48:14;;;;;;;;;;;;;;;15.55;56.17;99388.91;4350103;32;20000;-84
2022/11/05 12:50:41;;;;;;;;;;;;;;;15.58;56.46;99391.47;3762145;32;9999691;-84
2022/11/05 12:53:11;;;;;;;;;;;;;;;15.43;56.42;99397.72;3617689;32;10012834;-82
2022/11/05 12:55:40;;;;;;;;;;;;;;;15.35;56.70;99403.03;4355703;32;20049;-83
2022/11/05 12:58:21;;;;;;;;;;;;;;;15.59;55.66;99401.00;4379593;32;19999;-83
2022/11/05 13:00:50;;;;;;;;;;;;;;;15.58;55.41;99407.13;4381534;32;20009;-82
2022/11/05 13:03:30;;;;;;;;;;;;;;;15.39;56.68;99421.25;4381170;32;20509;-83
2022/11/05 13:06:05;;;;;;;;;;;;;;;15.64;56.21;99420.09;4370258;32;20006;-82
2022/11/05 13:08:52;;;;;;;;;;;;;;;15.56;56.07;99421.91;4362579;32;19983;-81
2022/11/05 13:11:48;;;;;;;;;;;;;;;15.19;56.58;99422.31;4368579;32;20257;-82
2022/11/05 13:14:23;;;;;;;;;;;;;;;15.61;56.24;99420.13;4358490;32;19978;-83
2022/11/05 13:16:55;;;;;;;;;;;;;;;15.69;56.35;99418.31;4364370;32;20368;-83
2022/11/05 13:19:44;;;;;;;;;;;;;;;15.74;55.45;99421.75;4380115;32;20058;-83
2022/11/05 13:22:27;;;;;;;;;;;;;;;15.65;55.91;99424.44;4364270;32;19997;-82
2022/11/05 13:24:55;;;;;;;;;;;;;;;15.83;55.81;99435.59;4387846;32;19988;-84
2022/11/05 13:27:41;;;;;;;;;;;;;;;15.72;56.62;99441.78;4357944;32;19975;-83
2022/11/05 13:30:11;;;;;;;;;;;;;;;15.78;55.82;99439.09;4390904;32;20006;-83
2022/11/05 13:32:39;;;;;;;;;;;;;;;15.76;55.32;99440.88;4389683;32;19983;-83
2022/11/05 13:35:12;;;;;;;;;;;;;;;15.69;55.77;99440.94;4358957;32;19995;-83
2022/11/05 13:40:31;;;;;;;;;;;;;;;15.58;55.14;99435.81;4352395;32;20010;-83
2022/11/05 13:43:22;;;;;;;;;;;;;;;15.65;55.29;99442.69;4367959;32;19983;-83